Aviation Digital Data Service (ADDS)

Output produced by METARs form (0313 UTC 20 March 2019)
found at http://www.aviationweather.gov/metar/data/
 
Forecast for: SUMU (CARRASCO (CIV/MI, UY)
Text: TAF SUMU 192330Z 2000/2024 18010KT 9999 SCT020 BKN070 TX20/2018Z TN15/2009Z
Forecast period: 0000 to 1200 UTC 20 March 2019
Forecast type: FROM: standard forecast or significant change
Winds: from the S (180 degrees) at 12 MPH (10 knots; 5.1 m/s)
Visibility: 6 or more miles 10+ km)
Ceiling: 7000 feet AGL
Clouds: scattered clouds at 2000 feet AGL
broken clouds at 7000 feet AGL
Weather: no significant weather forecast for this period
Text: PROB30
Forecast period: 0000 to 0600 UTC 20 March 2019
Forecast type: TEMPORARY: The following changes expected for less than half the time period
Visibility: 3 miles (5 km)
Ceiling: 1000 feet AGL
Clouds: broken clouds at 1000 feet AGL
broken clouds at 7000 feet AGL
Weather: SHRA  (rain showers)
Text: TEMPO 2000/2006 5000 SHRA BKN010 BKN070
Forecast period: 1200 UTC 20 March 2019 to 0000 UTC 21 March 2019
Forecast type: BECOMING: Conditions expected to become as follows by 1400 UTC 20 March 2019
Winds: from the SSW (200 degrees) at 17 MPH (15 knots; 7.7 m/s)
Visibility: 6 or more miles 10+ km)
Ceiling: at least 12,000 feet AGL
Clouds: scattered clouds at 2500 feet AGL
Weather: no significant weather forecast for this period